Language: 


Des rapports , des résumés tant et plus, au choix de chacun....


Données Historiques de Météogheer
Journalier Rapport pour Décembre 7, 2017 Unitée:  Les deux    Impériale   Métrique
Suivant Jour »
Journalier Hebdomadaire Mensuel Annuel Sur mesure
  Max: Min: Moyenne:
Température: 46.9 °F /  8.3 °C 37.6 °F /  3.1 °C 41.7 °F /  5.4 °C
Point de rosée: 48.2 °F /  9.0 °C 37.4 °F /  3.0 °C 40.5 °F /  4.7 °C
Humidité: 98% 81% 94%
Vent: 17.9mph /  28.8km/h - 8.8mph /  14.2km/h
Rafales: 23.9mph /  38.5km/h - -
Vent- - SW
Pression: 30.2 in /  1022.9 hPa 0 in /  0.0 hPa -
Pluie: 0.18 in /  4.6 mm    
Historical Graphs
 
 
Données tabulaires pour Décembre 7, 2017
Heure Température Point de rosée Pression Vent Vent Rafales Humidité Pluie Taux (Horaire) Conditions
00:00 43.9 °F /  6.6 °C 39.2 °F /  4.0 °C 30.2in /  1022.9hPa South 8.1mph /  13.0km/h 10.7mph /  17.2km/h 83% 0in /  0.0mm
00:05 43.9 °F /  6.6 °C 39.2 °F /  4.0 °C 30.2in /  1022.9hPa South 6.3mph /  10.1km/h 10.3mph /  16.6km/h 83% 0in /  0.0mm
00:10 43.9 °F /  6.6 °C 39.2 °F /  4.0 °C 30.2in /  1022.9hPa South 9.8mph /  15.8km/h 10.1mph /  16.3km/h 83% 0in /  0.0mm
00:15 43.7 °F /  6.5 °C 39.2 °F /  4.0 °C 30.2in /  1022.9hPa SSW 6mph /  9.7km/h 12.5mph /  20.1km/h 82% 0in /  0.0mm
00:20 43.7 °F /  6.5 °C 39.2 °F /  4.0 °C 30.2in /  1022.9hPa SSW 5.8mph /  9.3km/h 12.5mph /  20.1km/h 82% 0in /  0.0mm
00:25 43.7 °F /  6.5 °C 39.2 °F /  4.0 °C 30.2in /  1022.9hPa SSW 7.6mph /  12.2km/h 11.9mph /  19.1km/h 82% 0in /  0.0mm
00:30 43.7 °F /  6.5 °C 39.2 °F /  4.0 °C 30.2in /  1022.9hPa SSW 8.5mph /  13.7km/h 8.5mph /  13.7km/h 81% 0in /  0.0mm
00:35 43.5 °F /  6.4 °C 37.4 °F /  3.0 °C 30.2in /  1022.9hPa SSW 13mph /  20.9km/h 13mph /  20.9km/h 81% 0in /  0.0mm
00:40 43.5 °F /  6.4 °C 37.4 °F /  3.0 °C 30.2in /  1022.9hPa SW 11.2mph /  18.0km/h 13mph /  20.9km/h 81% 0in /  0.0mm
00:45 43.3 °F /  6.3 °C 37.4 °F /  3.0 °C 30.2in /  1022.9hPa SSW 9.8mph /  15.8km/h 13mph /  20.9km/h 81% 0in /  0.0mm
00:50 43 °F /  6.1 °C 37.4 °F /  3.0 °C 30.2in /  1022.9hPa SSW 7.4mph /  11.9km/h 11.2mph /  18.0km/h 81% 0in /  0.0mm
00:55 42.8 °F /  6.0 °C 37.4 °F /  3.0 °C 30.2in /  1022.9hPa SSW 10.1mph /  16.3km/h 10.1mph /  16.3km/h 81% 0in /  0.0mm
01:00 42.8 °F /  6.0 °C 37.4 °F /  3.0 °C 30.2in /  1022.9hPa SSW 7.8mph /  12.6km/h 10.5mph /  16.9km/h 81% 0in /  0.0mm
01:05 42.8 °F /  6.0 °C 37.4 °F /  3.0 °C 30.2in /  1022.9hPa WSW 6.9mph /  11.1km/h 11.2mph /  18.0km/h 81% 0in /  0.0mm
01:11 42.6 °F /  5.9 °C 37.4 °F /  3.0 °C 30.2in /  1021.9hPa SSW 7.4mph /  11.9km/h 11.2mph /  18.0km/h 82% 0in /  0.0mm
01:16 42.6 °F /  5.9 °C 37.4 °F /  3.0 °C 30.2in /  1021.9hPa South 6.5mph /  10.5km/h 9.8mph /  15.8km/h 82% 0in /  0.0mm
01:21 42.6 °F /  5.9 °C 37.4 °F /  3.0 °C 30.2in /  1021.9hPa SSW 6.3mph /  10.1km/h 12.5mph /  20.1km/h 82% 0in /  0.0mm
01:26 42.4 °F /  5.8 °C 37.4 °F /  3.0 °C 30.2in /  1021.9hPa SW 9.2mph /  14.8km/h 12.5mph /  20.1km/h 83% 0in /  0.0mm
01:31 42.4 °F /  5.8 °C 37.4 °F /  3.0 °C 30.2in /  1021.9hPa SSW 13mph /  20.9km/h 13.2mph /  21.2km/h 83% 0in /  0.0mm
01:36 42.4 °F /  5.8 °C 37.4 °F /  3.0 °C 30.2in /  1021.9hPa SSW 8.5mph /  13.7km/h 13.2mph /  21.2km/h 83% 0in /  0.0mm
01:41 42.3 °F /  5.7 °C 37.4 °F /  3.0 °C 30.2in /  1020.9hPa SSW 14.8mph /  23.8km/h 14.8mph /  23.8km/h 84% 0in /  0.0mm
01:46 42.3 °F /  5.7 °C 37.4 °F /  3.0 °C 30.2in /  1020.9hPa SSW 10.7mph /  17.2km/h 14.8mph /  23.8km/h 84% 0in /  0.0mm
01:51 42.3 °F /  5.7 °C 37.4 °F /  3.0 °C 30.2in /  1020.9hPa SSW 8.7mph /  14.0km/h 14.8mph /  23.8km/h 84% 0in /  0.0mm
01:56 42.3 °F /  5.7 °C 37.4 °F /  3.0 °C 30.2in /  1020.9hPa SSW 7.8mph /  12.6km/h 12.5mph /  20.1km/h 84% 0in /  0.0mm
02:01 42.3 °F /  5.7 °C 37.4 °F /  3.0 °C 30.2in /  1020.9hPa SSW 10.1mph /  16.3km/h 12.5mph /  20.1km/h 83% 0in /  0.0mm
02:06 42.3 °F /  5.7 °C 37.4 °F /  3.0 °C 30.2in /  1020.9hPa SSW 7.6mph /  12.2km/h 12.3mph /  19.8km/h 83% 0in /  0.0mm
02:11 42.3 °F /  5.7 °C 37.4 °F /  3.0 °C 30.2in /  1020.9hPa SSW 12.5mph /  20.1km/h 12.5mph /  20.1km/h 83% 0in /  0.0mm
02:16 42.3 °F /  5.7 °C 37.4 °F /  3.0 °C 30.2in /  1020.9hPa SSW 12.3mph /  19.8km/h 12.5mph /  20.1km/h 83% 0in /  0.0mm
02:21 42.1 °F /  5.6 °C 37.4 °F /  3.0 °C 30.2in /  1020.9hPa South 8.5mph /  13.7km/h 12.5mph /  20.1km/h 84% 0in /  0.0mm
02:26 41.9 °F /  5.5 °C 39.2 °F /  4.0 °C 30.2in /  1020.9hPa SSW 7.8mph /  12.6km/h 12.3mph /  19.8km/h 85% 0in /  0.0mm
02:31 41.5 °F /  5.3 °C 37.4 °F /  3.0 °C 30.2in /  1020.9hPa South 10.5mph /  16.9km/h 13.4mph /  21.6km/h 86% 0in /  0.0mm
02:36 41.2 °F /  5.1 °C 37.4 °F /  3.0 °C 30.2in /  1020.9hPa South 13mph /  20.9km/h 13.4mph /  21.6km/h 87% 0in /  0.0mm
02:41 40.8 °F /  4.9 °C 37.4 °F /  3.0 °C 30.2in /  1020.9hPa SSW 7.4mph /  11.9km/h 13.2mph /  21.2km/h 88% 0in /  0.0mm
02:47 40.6 °F /  4.8 °C 37.4 °F /  3.0 °C 30.2in /  1020.9hPa SSW 10.3mph /  16.6km/h 13.2mph /  21.2km/h 88% 0in /  0.0mm
02:52 40.5 °F /  4.7 °C 37.4 °F /  3.0 °C 30.2in /  1020.9hPa South 6mph /  9.7km/h 10.3mph /  16.6km/h 88% 0in /  0.0mm
02:57 40.3 °F /  4.6 °C 37.4 °F /  3.0 °C 30.2in /  1020.9hPa SSW 10.7mph /  17.2km/h 10.7mph /  17.2km/h 89% 0in /  0.0mm
03:02 40.1 °F /  4.5 °C 37.4 °F /  3.0 °C 0in /  0.0hPa SSW 12.3mph /  19.8km/h 12.3mph /  19.8km/h 89% 0in /  0.0mm
03:07 39.9 °F /  4.4 °C 37.4 °F /  3.0 °C 30.2in /  1020.9hPa South 8.7mph /  14.0km/h 12.3mph /  19.8km/h 90% 0in /  0.0mm
03:12 39.9 °F /  4.4 °C 37.4 °F /  3.0 °C 30.2in /  1020.9hPa SSW 10.5mph /  16.9km/h 15.4mph /  24.8km/h 90% 0in /  0.0mm
03:17 39.7 °F /  4.3 °C 37.4 °F /  3.0 °C 30.2in /  1020.9hPa SSW 12.3mph /  19.8km/h 15.4mph /  24.8km/h 91% 0in /  0.0mm
03:22 39.4 °F /  4.1 °C 37.4 °F /  3.0 °C 30.2in /  1020.9hPa South 9.2mph /  14.8km/h 13.2mph /  21.2km/h 91% 0in /  0.0mm
03:27 39.4 °F /  4.1 °C 37.4 °F /  3.0 °C 30.1in /  1019.9hPa SSW 8.9mph /  14.3km/h 13.2mph /  21.2km/h 91% 0in /  0.0mm
03:32 39.2 °F /  4.0 °C 37.4 °F /  3.0 °C 30.1in /  1019.9hPa SSW 13.9mph /  22.4km/h 13.9mph /  22.4km/h 92% 0in /  0.0mm
03:37 39 °F /  3.9 °C 37.4 °F /  3.0 °C 30.1in /  1019.9hPa SSW 11.9mph /  19.1km/h 13.9mph /  22.4km/h 93% 0in /  0.0mm
03:42 39 °F /  3.9 °C 37.4 °F /  3.0 °C 30.1in /  1018.8hPa SSW 10.3mph /  16.6km/h 13.9mph /  22.4km/h 93% 0in /  0.0mm
03:47 38.8 °F /  3.8 °C 37.4 °F /  3.0 °C 30.1in /  1018.8hPa SSW 7.8mph /  12.6km/h 11.9mph /  19.1km/h 93% 0in /  0.0mm
03:52 38.8 °F /  3.8 °C 37.4 °F /  3.0 °C 30.1in /  1018.8hPa South 7.8mph /  12.6km/h 12.8mph /  20.6km/h 94% 0in /  0.0mm
03:57 38.7 °F /  3.7 °C 37.4 °F /  3.0 °C 30.1in /  1018.8hPa South 4.3mph /  6.9km/h 12.8mph /  20.6km/h 94% 0in /  0.0mm
04:02 38.7 °F /  3.7 °C 37.4 °F /  3.0 °C 30.1in /  1018.8hPa SSW 15.4mph /  24.8km/h 15.4mph /  24.8km/h 94% 0in /  0.0mm
04:07 38.7 °F /  3.7 °C 37.4 °F /  3.0 °C 30.1in /  1018.8hPa SSW 15.4mph /  24.8km/h 15.4mph /  24.8km/h 94% 0in /  0.0mm
04:13 38.5 °F /  3.6 °C 37.4 °F /  3.0 °C 30.1in /  1018.8hPa SSW 15.4mph /  24.8km/h 15.4mph /  24.8km/h 94% 0in /  0.0mm
04:18 38.5 °F /  3.6 °C 37.4 °F /  3.0 °C 30.1in /  1018.8hPa South 8.1mph /  13.0km/h 15.4mph /  24.8km/h 94% 0in /  0.0mm
04:23 38.3 °F /  3.5 °C 37.4 °F /  3.0 °C 30.1in /  1018.8hPa South 8.1mph /  13.0km/h 15.4mph /  24.8km/h 95% 0in /  0.0mm
04:24 38.3 °F /  3.5 °C 37.4 °F /  3.0 °C 30.1in /  1018.8hPa South 8.1mph /  13.0km/h 15.4mph /  24.8km/h 95% 0in /  0.0mm
04:25 38.3 °F /  3.5 °C 37.4 °F /  3.0 °C 30.1in /  1018.8hPa South 8.1mph /  13.0km/h 8.1mph /  13.0km/h 95% 0in /  0.0mm
04:31 38.3 °F /  3.5 °C 37.4 °F /  3.0 °C 30.1in /  1018.8hPa SSW 8.1mph /  13.0km/h 15.4mph /  24.8km/h 95% 0in /  0.0mm
04:36 38.1 °F /  3.4 °C 37.4 °F /  3.0 °C 30.1in /  1018.8hPa SSW 11.9mph /  19.1km/h 15.4mph /  24.8km/h 95% 0in /  0.0mm
04:41 38.1 °F /  3.4 °C 37.4 °F /  3.0 °C 30.1in /  1018.8hPa SSW 8.1mph /  13.0km/h 14.8mph /  23.8km/h 95% 0in /  0.0mm
04:46 37.9 °F /  3.3 °C 37.4 °F /  3.0 °C 30.1in /  1018.8hPa South 10.5mph /  16.9km/h 14.8mph /  23.8km/h 95% 0in /  0.0mm
04:51 37.9 °F /  3.3 °C 37.4 °F /  3.0 °C 30.1in /  1018.8hPa South 7.4mph /  11.9km/h 12.5mph /  20.1km/h 95% 0in /  0.0mm
04:56 37.8 °F /  3.2 °C 37.4 °F /  3.0 °C 30.1in /  1018.2hPa South 10.1mph /  16.3km/h 11.9mph /  19.1km/h 95% 0in /  0.0mm
05:01 37.6 °F /  3.1 °C 37.4 °F /  3.0 °C 30.1in /  1018.2hPa SSE 8.1mph /  13.0km/h 15.2mph /  24.5km/h 95% 0in /  0.0mm
05:06 37.6 °F /  3.1 °C 37.4 °F /  3.0 °C 30.1in /  1018.2hPa South 7.6mph /  12.2km/h 15.2mph /  24.5km/h 95% 0in /  0.0mm
05:11 37.6 °F /  3.1 °C 37.4 °F /  3.0 °C 30.1in /  1018.2hPa SSW 8.7mph /  14.0km/h 12.1mph /  19.5km/h 95% 0in /  0.0mm
05:16 37.6 °F /  3.1 °C 37.4 °F /  3.0 °C 30.1in /  1018.2hPa SSW 7.8mph /  12.6km/h 11mph /  17.7km/h 96% 0in /  0.0mm
05:21 37.6 °F /  3.1 °C 37.4 °F /  3.0 °C 30.1in /  1018.2hPa South 7.6mph /  12.2km/h 13.9mph /  22.4km/h 96% 0in /  0.0mm
05:26 37.6 °F /  3.1 °C 37.4 °F /  3.0 °C 30.1in /  1018.2hPa SSW 6.3mph /  10.1km/h 13.9mph /  22.4km/h 96% 0in /  0.0mm
05:31 37.8 °F /  3.2 °C 37.4 °F /  3.0 °C 30.1in /  1018.2hPa SSW 8.7mph /  14.0km/h 10.7mph /  17.2km/h 96% 0in /  0.0mm
05:36 37.9 °F /  3.3 °C 37.4 °F /  3.0 °C 30.1in /  1018.2hPa WSW 11mph /  17.7km/h 16.8mph /  27.0km/h 97% 0in /  0.0mm
05:41 38.1 °F /  3.4 °C 37.4 °F /  3.0 °C 30.1in /  1018.2hPa South 10.5mph /  16.9km/h 16.8mph /  27.0km/h 97% 0in /  0.0mm
05:46 38.1 °F /  3.4 °C 37.4 °F /  3.0 °C 30.1in /  1018.2hPa South 10.5mph /  16.9km/h 12.3mph /  19.8km/h 97% 0in /  0.0mm
05:51 38.5 °F /  3.6 °C 37.4 °F /  3.0 °C 30.1in /  1018.2hPa SSW 6mph /  9.7km/h 11mph /  17.7km/h 97% 0in /  0.0mm
05:56 38.5 °F /  3.6 °C 37.4 °F /  3.0 °C 30in /  1016.8hPa SSW 10.5mph /  16.9km/h 15.4mph /  24.8km/h 97% 0in /  0.0mm
06:01 38.7 °F /  3.7 °C 37.4 °F /  3.0 °C 30in /  1016.8hPa SSW 11mph /  17.7km/h 16.6mph /  26.7km/h 96% 0in /  0.0mm
06:06 38.7 °F /  3.7 °C 37.4 °F /  3.0 °C 30in /  1016.8hPa SSW 13.2mph /  21.2km/h 16.6mph /  26.7km/h 96% 0in /  0.0mm
06:11 38.8 °F /  3.8 °C 37.4 °F /  3.0 °C 30in /  1016.8hPa South 8.7mph /  14.0km/h 13.2mph /  21.2km/h 96% 0in /  0.0mm
06:16 38.8 °F /  3.8 °C 37.4 °F /  3.0 °C 30in /  1016.8hPa South 8.7mph /  14.0km/h 13.2mph /  21.2km/h 96% 0in /  0.0mm
06:21 39 °F /  3.9 °C 39.2 °F /  4.0 °C 30in /  1016.8hPa SSW 7.6mph /  12.2km/h 8.7mph /  14.0km/h 96% 0in /  0.0mm
06:26 39.2 °F /  4.0 °C 37.4 °F /  3.0 °C 30in /  1016.8hPa SSW 8.1mph /  13.0km/h 8.7mph /  14.0km/h 95% 0in /  0.0mm
06:32 39.2 °F /  4.0 °C 37.4 °F /  3.0 °C 30in /  1016.8hPa SSW 7.4mph /  11.9km/h 14.8mph /  23.8km/h 95% 0in /  0.0mm
06:37 39.4 °F /  4.1 °C 37.4 °F /  3.0 °C 30in /  1016.8hPa SSW 8.9mph /  14.3km/h 14.8mph /  23.8km/h 94% 0in /  0.0mm
06:42 39.4 °F /  4.1 °C 37.4 °F /  3.0 °C 30in /  1016.8hPa SW 12.5mph /  20.1km/h 12.5mph /  20.1km/h 94% 0in /  0.0mm
06:47 39.6 °F /  4.2 °C 37.4 °F /  3.0 °C 30in /  1016.8hPa SSE 5.8mph /  9.3km/h 12.5mph /  20.1km/h 93% 0in /  0.0mm
06:52 39.7 °F /  4.3 °C 37.4 °F /  3.0 °C 30in /  1016.8hPa South 8.5mph /  13.7km/h 15.7mph /  25.3km/h 93% 0in /  0.0mm
06:57 39.7 °F /  4.3 °C 37.4 °F /  3.0 °C 30in /  1016.8hPa South 6mph /  9.7km/h 15.7mph /  25.3km/h 93% 0in /  0.0mm
07:02 39.7 °F /  4.3 °C 37.4 °F /  3.0 °C 30in /  1016.8hPa SSW 8.1mph /  13.0km/h 12.3mph /  19.8km/h 92% 0in /  0.0mm
07:07 39.7 °F /  4.3 °C 37.4 °F /  3.0 °C 30in /  1016.8hPa SSW 11.9mph /  19.1km/h 11.9mph /  19.1km/h 92% 0in /  0.0mm
07:12 39.7 °F /  4.3 °C 37.4 °F /  3.0 °C 30in /  1016.1hPa SSW 11.9mph /  19.1km/h 11.9mph /  19.1km/h 92% 0in /  0.0mm
07:17 39.7 °F /  4.3 °C 37.4 °F /  3.0 °C 30in /  1016.1hPa SSW 11.9mph /  19.1km/h 11.9mph /  19.1km/h 92% 0in /  0.0mm
07:22 39.9 °F /  4.4 °C 37.4 °F /  3.0 °C 30in /  1016.1hPa SSW 11.2mph /  18.0km/h 11.9mph /  19.1km/h 92% 0in /  0.0mm
07:27 39.9 °F /  4.4 °C 37.4 °F /  3.0 °C 30in /  1016.1hPa SSW 11.2mph /  18.0km/h 11.9mph /  19.1km/h 91% 0in /  0.0mm
07:32 39.9 °F /  4.4 °C 37.4 °F /  3.0 °C 30in /  1016.1hPa SSW 10.3mph /  16.6km/h 14.5mph /  23.3km/h 91% 0in /  0.0mm
07:37 39.9 °F /  4.4 °C 37.4 °F /  3.0 °C 30in /  1016.1hPa SSW 11.4mph /  18.3km/h 14.5mph /  23.3km/h 91% 0in /  0.0mm
07:41 39.7 °F /  4.3 °C 37.4 °F /  3.0 °C 30in /  1015.1hPa SSW 11.4mph /  18.3km/h 11.4mph /  18.3km/h 91% 0in /  0.0mm
07:46 39.7 °F /  4.3 °C 37.4 °F /  3.0 °C 30in /  1015.1hPa SSW 11.4mph /  18.3km/h 11.4mph /  18.3km/h 91% 0in /  0.0mm
07:51 39.7 °F /  4.3 °C 37.4 °F /  3.0 °C 30in /  1015.1hPa South 12.8mph /  20.6km/h 12.8mph /  20.6km/h 91% 0in /  0.0mm
07:56 39.7 °F /  4.3 °C 37.4 °F /  3.0 °C 29.9in /  1014.1hPa South 7.8mph /  12.6km/h 12.8mph /  20.6km/h 91% 0in /  0.0mm
08:01 39.7 °F /  4.3 °C 37.4 °F /  3.0 °C 29.9in /  1014.1hPa SSW 6.9mph /  11.1km/h 12.8mph /  20.6km/h 91% 0in /  0.0mm
08:06 39.7 °F /  4.3 °C 37.4 °F /  3.0 °C 29.9in /  1014.1hPa SSW 6.3mph /  10.1km/h 7.8mph /  12.6km/h 91% 0in /  0.0mm
08:11 39.7 °F /  4.3 °C 37.4 °F /  3.0 °C 29.9in /  1014.1hPa SSW 7.8mph /  12.6km/h 7.8mph /  12.6km/h 92% 0in /  0.0mm
08:16 39.7 °F /  4.3 °C 37.4 °F /  3.0 °C 29.9in /  1014.1hPa SSW 7.8mph /  12.6km/h 7.8mph /  12.6km/h 92% 0in /  0.0mm
08:21 39.7 °F /  4.3 °C 37.4 °F /  3.0 °C 29.9in /  1014.1hPa SSW 10.1mph /  16.3km/h 10.1mph /  16.3km/h 93% 0in /  0.0mm
08:26 39.7 °F /  4.3 °C 37.4 °F /  3.0 °C 30in /  1015.1hPa SSW 10.1mph /  16.3km/h 10.1mph /  16.3km/h 93% 0in /  0.0mm
08:31 39.7 °F /  4.3 °C 37.4 °F /  3.0 °C 30in /  1015.1hPa SSW 10.1mph /  16.3km/h 10.1mph /  16.3km/h 93% 0in /  0.0mm
08:36 39.7 °F /  4.3 °C 37.4 °F /  3.0 °C 30in /  1015.1hPa SW 10.7mph /  17.2km/h 13mph /  20.9km/h 93% 0in /  0.0mm
08:42 39.7 °F /  4.3 °C 37.4 °F /  3.0 °C 29.9in /  1014.1hPa South 10.1mph /  16.3km/h 16.1mph /  25.9km/h 93% 0in /  0.0mm
08:47 39.7 °F /  4.3 °C 37.4 °F /  3.0 °C 29.9in /  1014.1hPa WSW 5.6mph /  9.0km/h 16.1mph /  25.9km/h 93% 0in /  0.0mm
08:52 39.7 °F /  4.3 °C 37.4 °F /  3.0 °C 29.9in /  1014.1hPa SSW 9.8mph /  15.8km/h 17.7mph /  28.5km/h 93% 0in /  0.0mm
08:53 39.7 °F /  4.3 °C 37.4 °F /  3.0 °C 29.9in /  1014.1hPa SSW 14.5mph /  23.3km/h 17.7mph /  28.5km/h 93% 0in /  0.0mm
08:58 39.7 °F /  4.3 °C 37.4 °F /  3.0 °C 30in /  1015.1hPa SW 13mph /  20.9km/h 17.7mph /  28.5km/h 93% 0in /  0.0mm
09:03 39.7 °F /  4.3 °C 37.4 °F /  3.0 °C 30in /  1015.1hPa SSW 13.9mph /  22.4km/h 17.7mph /  28.5km/h 93% 0in /  0.0mm
09:08 39.7 °F /  4.3 °C 37.4 °F /  3.0 °C 30in /  1015.1hPa SSW 6.5mph /  10.5km/h 17.7mph /  28.5km/h 93% 0in /  0.0mm
09:13 39.7 °F /  4.3 °C 37.4 °F /  3.0 °C 30in /  1015.1hPa SSW 9.8mph /  15.8km/h 17.7mph /  28.5km/h 93% 0in /  0.0mm
09:18 39.7 °F /  4.3 °C 37.4 °F /  3.0 °C 30in /  1015.1hPa SSW 13mph /  20.9km/h 17.7mph /  28.5km/h 93% 0in /  0.0mm
09:24 39.7 °F /  4.3 °C 37.4 °F /  3.0 °C 30in /  1015.1hPa South 10.7mph /  17.2km/h 17.4mph /  28.0km/h 94% 0in /  0.0mm
09:29 39.7 °F /  4.3 °C 37.4 °F /  3.0 °C 30in /  1015.1hPa SSW 13.9mph /  22.4km/h 14.5mph /  23.3km/h 94% 0in /  0.0mm
09:34 39.7 °F /  4.3 °C 37.4 °F /  3.0 °C 30in /  1015.1hPa West 10.7mph /  17.2km/h 16.6mph /  26.7km/h 94% 0in /  0.0mm
09:39 39.7 °F /  4.3 °C 39.2 °F /  4.0 °C 30in /  1015.1hPa SW 8.7mph /  14.0km/h 17.7mph /  28.5km/h 95% 0in /  0.0mm
09:44 39.9 °F /  4.4 °C 39.2 °F /  4.0 °C 30in /  1015.1hPa South 12.8mph /  20.6km/h 17.7mph /  28.5km/h 95% 0in /  0.0mm
09:49 39.9 °F /  4.4 °C 39.2 °F /  4.0 °C 30in /  1015.1hPa SSW 12.8mph /  20.6km/h 17.4mph /  28.0km/h 95% 0in /  0.0mm
09:54 39.9 °F /  4.4 °C 37.4 °F /  3.0 °C 30in /  1015.1hPa SSW 10.1mph /  16.3km/h 17.2mph /  27.7km/h 94% 0in /  0.0mm
09:59 39.9 °F /  4.4 °C 39.2 °F /  4.0 °C 29.9in /  1014.1hPa SSW 12.1mph /  19.5km/h 14.3mph /  23.0km/h 95% 0in /  0.0mm
10:04 40.1 °F /  4.5 °C 39.2 °F /  4.0 °C 29.9in /  1014.1hPa SSW 8.1mph /  13.0km/h 15.2mph /  24.5km/h 95% 0in /  0.0mm
10:09 40.3 °F /  4.6 °C 39.2 °F /  4.0 °C 29.9in /  1014.1hPa SSW 9.8mph /  15.8km/h 15.2mph /  24.5km/h 95% 0in /  0.0mm
10:14 40.3 °F /  4.6 °C 39.2 °F /  4.0 °C 29.9in /  1014.1hPa SSW 8.7mph /  14.0km/h 15.2mph /  24.5km/h 95% 0in /  0.0mm
10:19 40.3 °F /  4.6 °C 39.2 °F /  4.0 °C 29.9in /  1014.1hPa SSW 12.8mph /  20.6km/h 13.9mph /  22.4km/h 95% 0in /  0.0mm
10:24 40.5 °F /  4.7 °C 39.2 °F /  4.0 °C 29.9in /  1014.1hPa South 14.1mph /  22.7km/h 17.7mph /  28.5km/h 95% 0in /  0.0mm
10:29 40.5 °F /  4.7 °C 39.2 °F /  4.0 °C 29.9in /  1014.1hPa South 7.6mph /  12.2km/h 18.8mph /  30.2km/h 95% 0in /  0.0mm
10:34 40.6 °F /  4.8 °C 39.2 °F /  4.0 °C 29.9in /  1014.1hPa SSW 10.7mph /  17.2km/h 18.8mph /  30.2km/h 95% 0in /  0.0mm
10:39 40.6 °F /  4.8 °C 39.2 °F /  4.0 °C 29.9in /  1014.1hPa SSW 15.9mph /  25.6km/h 19mph /  30.6km/h 95% 0in /  0.0mm
10:44 40.8 °F /  4.9 °C 39.2 °F /  4.0 °C 29.9in /  1013.1hPa SW 15.4mph /  24.8km/h 21.9mph /  35.2km/h 95% 0in /  0.0mm
10:49 41 °F /  5.0 °C 41 °F /  5.0 °C 29.9in /  1013.1hPa SSW 12.5mph /  20.1km/h 21.9mph /  35.2km/h 95% 0in /  0.0mm
10:54 41 °F /  5.0 °C 41 °F /  5.0 °C 29.9in /  1013.1hPa SW 13.6mph /  21.9km/h 17mph /  27.4km/h 95% 0in /  0.0mm
10:59 41.2 °F /  5.1 °C 39.2 °F /  4.0 °C 29.9in /  1014.1hPa SW 15.4mph /  24.8km/h 19.5mph /  31.4km/h 94% 0in /  0.0mm
11:04 41.2 °F /  5.1 °C 39.2 °F /  4.0 °C 29.9in /  1014.1hPa SW 13.2mph /  21.2km/h 19.5mph /  31.4km/h 94% 0in /  0.0mm
11:09 41.4 °F /  5.2 °C 39.2 °F /  4.0 °C 29.9in /  1014.1hPa SSW 10.1mph /  16.3km/h 16.3mph /  26.2km/h 94% 0in /  0.0mm
11:14 41.5 °F /  5.3 °C 41 °F /  5.0 °C 29.9in /  1014.1hPa South 9.6mph /  15.4km/h 16.8mph /  27.0km/h 94% 0in /  0.0mm
11:19 41.4 °F /  5.2 °C 41 °F /  5.0 °C 29.9in /  1014.1hPa SSW 10.3mph /  16.6km/h 16.8mph /  27.0km/h 95% 0in /  0.0mm
11:24 41.4 °F /  5.2 °C 41 °F /  5.0 °C 29.9in /  1014.1hPa SW 12.8mph /  20.6km/h 15.4mph /  24.8km/h 96% 0.01in /  0.3mm
11:29 41.4 °F /  5.2 °C 41 °F /  5.0 °C 29.9in /  1013.1hPa SSW 13mph /  20.9km/h 17.9mph /  28.8km/h 96% 0.01in /  0.3mm
11:35 41.2 °F /  5.1 °C 41 °F /  5.0 °C 29.9in /  1013.1hPa WSW 13.6mph /  21.9km/h 17.9mph /  28.8km/h 97% 0.01in /  0.3mm
11:40 41.2 °F /  5.1 °C 41 °F /  5.0 °C 29.9in /  1013.1hPa SSW 5.6mph /  9.0km/h 17.4mph /  28.0km/h 98% 0.02in /  0.5mm
11:45 41.4 °F /  5.2 °C 41 °F /  5.0 °C 29.9in /  1013.1hPa South 8.1mph /  13.0km/h 17.4mph /  28.0km/h 98% 0.03in /  0.8mm
11:50 41.4 °F /  5.2 °C 41 °F /  5.0 °C 29.9in /  1013.1hPa South 11mph /  17.7km/h 15.7mph /  25.3km/h 98% 0.03in /  0.8mm
11:55 41.4 °F /  5.2 °C 41 °F /  5.0 °C 29.9in /  1013.1hPa SSW 12.5mph /  20.1km/h 15.7mph /  25.3km/h 98% 0.03in /  0.8mm
12:00 41.5 °F /  5.3 °C 42.8 °F /  6.0 °C 29.9in /  1012.1hPa SSW 9.6mph /  15.4km/h 15.4mph /  24.8km/h 98% 0.03in /  0.8mm
12:05 41.5 °F /  5.3 °C 42.8 °F /  6.0 °C 29.9in /  1012.1hPa SSW 10.5mph /  16.9km/h 15.4mph /  24.8km/h 98% 0.03in /  0.8mm
12:10 41.5 °F /  5.3 °C 42.8 °F /  6.0 °C 29.9in /  1012.1hPa SSW 10.5mph /  16.9km/h 23.9mph /  38.5km/h 98% 0.03in /  0.8mm
12:15 41.7 °F /  5.4 °C 42.8 °F /  6.0 °C 29.9in /  1011.1hPa SW 11mph /  17.7km/h 23.9mph /  38.5km/h 98% 0.03in /  0.8mm
12:20 41.7 °F /  5.4 °C 42.8 °F /  6.0 °C 29.9in /  1011.1hPa SSW 17.9mph /  28.8km/h 17.9mph /  28.8km/h 98% 0.02in /  0.5mm
12:25 41.7 °F /  5.4 °C 42.8 °F /  6.0 °C 29.9in /  1011.1hPa SW 8.5mph /  13.7km/h 17.9mph /  28.8km/h 98% 0.02in /  0.5mm
12:30 41.9 °F /  5.5 °C 42.8 °F /  6.0 °C 29.9in /  1011.1hPa South 9.6mph /  15.4km/h 17.9mph /  28.8km/h 98% 0.02in /  0.5mm
12:35 41.9 °F /  5.5 °C 42.8 °F /  6.0 °C 29.9in /  1011.1hPa SSW 8.5mph /  13.7km/h 15.9mph /  25.6km/h 98% 0.02in /  0.5mm
12:40 42.1 °F /  5.6 °C 42.8 °F /  6.0 °C 29.9in /  1011.1hPa South 8.5mph /  13.7km/h 15.9mph /  25.6km/h 98% 0.01in /  0.3mm
12:45 42.1 °F /  5.6 °C 42.8 °F /  6.0 °C 29.9in /  1011.1hPa SSW 15.4mph /  24.8km/h 17.4mph /  28.0km/h 98% 0in /  0.0mm
12:50 42.3 °F /  5.7 °C 42.8 °F /  6.0 °C 29.9in /  1011.1hPa South 13.6mph /  21.9km/h 17.4mph /  28.0km/h 98% 0in /  0.0mm
12:55 42.3 °F /  5.7 °C 42.8 °F /  6.0 °C 29.9in /  1011.1hPa SSW 17.2mph /  27.7km/h 17.2mph /  27.7km/h 98% 0in /  0.0mm
13:00 42.3 °F /  5.7 °C 42.8 °F /  6.0 °C 29.9in /  1011.1hPa SSW 8.5mph /  13.7km/h 17.2mph /  27.7km/h 98% 0in /  0.0mm
13:05 42.4 °F /  5.8 °C 42.8 °F /  6.0 °C 29.9in /  1011.1hPa SSW 13mph /  20.9km/h 16.8mph /  27.0km/h 98% 0in /  0.0mm
13:10 42.4 °F /  5.8 °C 42.8 °F /  6.0 °C 29.9in /  1011.1hPa SW 9.6mph /  15.4km/h 16.8mph /  27.0km/h 98% 0in /  0.0mm
13:15 42.6 °F /  5.9 °C 42.8 °F /  6.0 °C 29.8in /  1010.0hPa SSW 13mph /  20.9km/h 16.8mph /  27.0km/h 98% 0in /  0.0mm
13:20 42.6 °F /  5.9 °C 42.8 °F /  6.0 °C 29.8in /  1010.0hPa SW 11.2mph /  18.0km/h 16.3mph /  26.2km/h 98% 0in /  0.0mm
13:25 42.8 °F /  6.0 °C 42.8 °F /  6.0 °C 29.8in /  1010.0hPa SW 13mph /  20.9km/h 17.2mph /  27.7km/h 98% 0in /  0.0mm
13:30 42.8 °F /  6.0 °C 42.8 °F /  6.0 °C 29.8in /  1010.0hPa SSW 11.9mph /  19.1km/h 17.2mph /  27.7km/h 98% 0in /  0.0mm
13:35 43 °F /  6.1 °C 42.8 °F /  6.0 °C 29.8in /  1010.0hPa South 13.2mph /  21.2km/h 17.4mph /  28.0km/h 98% 0in /  0.0mm
13:50 43.3 °F /  6.3 °C 42.8 °F /  6.0 °C 29.8in /  1009.0hPa SSW 10.7mph /  17.2km/h 19.7mph /  31.7km/h 98% 0in /  0.0mm
14:00 43.5 °F /  6.4 °C 42.8 °F /  6.0 °C 29.8in /  1009.0hPa SW 17.4mph /  28.0km/h 17.4mph /  28.0km/h 98% 0in /  0.0mm
14:05 43.7 °F /  6.5 °C 44.6 °F /  7.0 °C 29.8in /  1009.0hPa WSW 14.8mph /  23.8km/h 17.4mph /  28.0km/h 98% 0in /  0.0mm
14:10 43.7 °F /  6.5 °C 44.6 °F /  7.0 °C 29.8in /  1009.0hPa WSW 15.4mph /  24.8km/h 15.9mph /  25.6km/h 98% 0in /  0.0mm
14:15 43.7 °F /  6.5 °C 44.6 °F /  7.0 °C 29.8in /  1009.0hPa SSW 6.3mph /  10.1km/h 17.9mph /  28.8km/h 98% 0in /  0.0mm
14:20 43.9 °F /  6.6 °C 44.6 °F /  7.0 °C 29.8in /  1009.0hPa SW 13mph /  20.9km/h 17.9mph /  28.8km/h 98% 0in /  0.0mm
14:25 43.9 °F /  6.6 °C 44.6 °F /  7.0 °C 29.8in /  1008.0hPa SSW 10.7mph /  17.2km/h 19.5mph /  31.4km/h 98% 0in /  0.0mm
14:30 44.1 °F /  6.7 °C 44.6 °F /  7.0 °C 29.8in /  1008.0hPa SW 13mph /  20.9km/h 19.5mph /  31.4km/h 98% 0in /  0.0mm
14:35 44.1 °F /  6.7 °C 44.6 °F /  7.0 °C 29.8in /  1008.0hPa SW 6.5mph /  10.5km/h 15.4mph /  24.8km/h 98% 0in /  0.0mm
14:40 44.1 °F /  6.7 °C 44.6 °F /  7.0 °C 29.8in /  1009.0hPa SSW 11mph /  17.7km/h 15.2mph /  24.5km/h 98% 0in /  0.0mm
14:45 44.2 °F /  6.8 °C 44.6 °F /  7.0 °C 29.8in /  1009.0hPa SSW 12.3mph /  19.8km/h 15.2mph /  24.5km/h 98% 0in /  0.0mm
14:51 44.2 °F /  6.8 °C 44.6 °F /  7.0 °C 29.8in /  1009.0hPa SW 7.6mph /  12.2km/h 14.8mph /  23.8km/h 98% 0in /  0.0mm
14:56 44.4 °F /  6.9 °C 44.6 °F /  7.0 °C 29.8in /  1008.0hPa SSW 11mph /  17.7km/h 14.8mph /  23.8km/h 98% 0in /  0.0mm
15:01 44.6 °F /  7.0 °C 44.6 °F /  7.0 °C 29.8in /  1008.0hPa SW 6mph /  9.7km/h 15.4mph /  24.8km/h 98% 0in /  0.0mm
15:06 44.8 °F /  7.1 °C 44.6 °F /  7.0 °C 29.8in /  1008.0hPa SSE 7.8mph /  12.6km/h 15.4mph /  24.8km/h 98% 0in /  0.0mm
15:16 45 °F /  7.2 °C 44.6 °F /  7.0 °C 29.8in /  1008.0hPa SSW 8.1mph /  13.0km/h 15.2mph /  24.5km/h 98% 0in /  0.0mm
15:21 45.1 °F /  7.3 °C 44.6 °F /  7.0 °C 29.8in /  1008.0hPa SSW 8.7mph /  14.0km/h 14.3mph /  23.0km/h 98% 0in /  0.0mm
15:26 45.1 °F /  7.3 °C 44.6 °F /  7.0 °C 29.7in /  1007.0hPa SSW 13mph /  20.9km/h 22.8mph /  36.7km/h 98% 0in /  0.0mm
15:31 45.1 °F /  7.3 °C 44.6 °F /  7.0 °C 29.7in /  1007.0hPa SSW 12.5mph /  20.1km/h 22.8mph /  36.7km/h 98% 0in /  0.0mm
15:36 45.1 °F /  7.3 °C 44.6 °F /  7.0 °C 29.7in /  1007.0hPa SSW 8.5mph /  13.7km/h 18.1mph /  29.1km/h 98% 0in /  0.0mm
15:46 45.3 °F /  7.4 °C 44.6 °F /  7.0 °C 29.7in /  1007.0hPa SSW 12.5mph /  20.1km/h 17.2mph /  27.7km/h 98% 0in /  0.0mm
15:51 45.3 °F /  7.4 °C 44.6 °F /  7.0 °C 29.7in /  1007.0hPa SW 12.3mph /  19.8km/h 19.2mph /  30.9km/h 98% 0.01in /  0.3mm
16:21 45.7 °F /  7.6 °C 46.4 °F /  8.0 °C 29.7in /  1007.0hPa SW 8.5mph /  13.7km/h 19mph /  30.6km/h 98% 0.03in /  0.8mm
16:26 45.9 °F /  7.7 °C 46.4 °F /  8.0 °C 29.7in /  1007.0hPa WSW 7.8mph /  12.6km/h 17mph /  27.4km/h 98% 0.03in /  0.8mm
16:41 46 °F /  7.8 °C 46.4 °F /  8.0 °C 29.7in /  1007.0hPa SSW 13mph /  20.9km/h 17.4mph /  28.0km/h 98% 0.05in /  1.3mm
16:51 46.2 °F /  7.9 °C 46.4 °F /  8.0 °C 29.7in /  1007.0hPa South 9.2mph /  14.8km/h 13.4mph /  21.6km/h 98% 0.05in /  1.3mm
16:56 46.2 °F /  7.9 °C 46.4 °F /  8.0 °C 29.7in /  1007.0hPa SW 10.3mph /  16.6km/h 12.3mph /  19.8km/h 98% 0.06in /  1.5mm
17:01 46.2 °F /  7.9 °C 46.4 °F /  8.0 °C 29.7in /  1007.0hPa SSW 10.3mph /  16.6km/h 19mph /  30.6km/h 98% 0.06in /  1.5mm
17:06 46.2 °F /  7.9 °C 46.4 °F /  8.0 °C 29.7in /  1007.0hPa SW 7.8mph /  12.6km/h 19.7mph /  31.7km/h 98% 0.06in /  1.5mm
17:11 46.2 °F /  7.9 °C 46.4 °F /  8.0 °C 29.7in /  1007.0hPa SSW 9.6mph /  15.4km/h 19.7mph /  31.7km/h 98% 0.05in /  1.3mm
17:16 46 °F /  7.8 °C 46.4 °F /  8.0 °C 29.7in /  1007.0hPa SW 6.5mph /  10.5km/h 13.4mph /  21.6km/h 98% 0.05in /  1.3mm
17:21 46.2 °F /  7.9 °C 46.4 °F /  8.0 °C 29.7in /  1007.0hPa WSW 7.6mph /  12.2km/h 15.4mph /  24.8km/h 98% 0.05in /  1.3mm
17:31 46.2 °F /  7.9 °C 46.4 °F /  8.0 °C 29.7in /  1007.0hPa SSW 13.6mph /  21.9km/h 14.5mph /  23.3km/h 98% 0.05in /  1.3mm
17:41 46.2 °F /  7.9 °C 46.4 °F /  8.0 °C 29.7in /  1006.0hPa WSW 6.9mph /  11.1km/h 12.1mph /  19.5km/h 98% 0.04in /  1.0mm
17:46 46.2 °F /  7.9 °C 46.4 °F /  8.0 °C 29.7in /  1006.0hPa SW 12.3mph /  19.8km/h 12.3mph /  19.8km/h 98% 0.05in /  1.3mm
17:51 46.4 °F /  8.0 °C 46.4 °F /  8.0 °C 29.7in /  1006.0hPa WSW 8.7mph /  14.0km/h 13mph /  20.9km/h 98% 0.04in /  1.0mm
17:56 46.4 °F /  8.0 °C 46.4 °F /  8.0 °C 29.7in /  1007.0hPa SW 7.2mph /  11.6km/h 13mph /  20.9km/h 98% 0.03in /  0.8mm
18:02 46.6 °F /  8.1 °C 46.4 °F /  8.0 °C 29.7in /  1007.0hPa WSW 6mph /  9.7km/h 12.8mph /  20.6km/h 98% 0.03in /  0.8mm
18:07 46.6 °F /  8.1 °C 46.4 °F /  8.0 °C 29.7in /  1007.0hPa WSW 10.1mph /  16.3km/h 12.8mph /  20.6km/h 98% 0.01in /  0.3mm
18:12 46.8 °F /  8.2 °C 46.4 °F /  8.0 °C 29.7in /  1007.0hPa WSW 7.8mph /  12.6km/h 13mph /  20.9km/h 98% 0.01in /  0.3mm
18:17 46.8 °F /  8.2 °C 46.4 °F /  8.0 °C 29.7in /  1007.0hPa WSW 9.8mph /  15.8km/h 13mph /  20.9km/h 98% 0.01in /  0.3mm
18:22 46.9 °F /  8.3 °C 48.2 °F /  9.0 °C 29.7in /  1007.0hPa WSW 5.4mph /  8.7km/h 13mph /  20.9km/h 98% 0.01in /  0.3mm
18:27 46.9 °F /  8.3 °C 48.2 °F /  9.0 °C 29.7in /  1007.0hPa NNW 3.1mph /  5.0km/h 11.9mph /  19.1km/h 98% 0.01in /  0.3mm
18:32 46.9 °F /  8.3 °C 48.2 °F /  9.0 °C 29.7in /  1007.0hPa West 6mph /  9.7km/h 7.8mph /  12.6km/h 98% 0.02in /  0.5mm
18:37 46.9 °F /  8.3 °C 48.2 °F /  9.0 °C 29.7in /  1007.0hPa NNW 5.8mph /  9.3km/h 10.1mph /  16.3km/h 98% 0.03in /  0.8mm
18:42 46 °F /  7.8 °C 46.4 °F /  8.0 °C 29.8in /  1009.0hPa NNW 8.7mph /  14.0km/h 12.5mph /  20.1km/h 98% 0.05in /  1.3mm
18:47 45.5 °F /  7.5 °C 46.4 °F /  8.0 °C 29.8in /  1009.0hPa NW 4.3mph /  6.9km/h 12.5mph /  20.1km/h 98% 0.03in /  0.8mm
18:52 45 °F /  7.2 °C 44.6 °F /  7.0 °C 29.8in /  1009.0hPa North 7.6mph /  12.2km/h 12.5mph /  20.1km/h 98% 0.03in /  0.8mm
18:57 44.8 °F /  7.1 °C 44.6 °F /  7.0 °C 29.8in /  1009.0hPa North 5.6mph /  9.0km/h 10.7mph /  17.2km/h 98% 0.03in /  0.8mm
19:28 44.2 °F /  6.8 °C 44.6 °F /  7.0 °C 29.8in /  1009.0hPa Calm   5.6mph /  9.0km/h 98% 0.03in /  0.8mm
19:38 44.1 °F /  6.7 °C 44.6 °F /  7.0 °C 29.8in /  1009.0hPa WNW 0.9mph /  1.4km/h 4mph /  6.4km/h 98% 0.01in /  0.3mm
19:48 44.1 °F /  6.7 °C 44.6 °F /  7.0 °C 29.8in /  1009.0hPa Calm   4mph /  6.4km/h 98% 0.01in /  0.3mm
19:58 43.9 °F /  6.6 °C 44.6 °F /  7.0 °C 29.8in /  1009.0hPa NNW 1.6mph /  2.6km/h 7.6mph /  12.2km/h 98% 0.01in /  0.3mm
20:03 43.7 °F /  6.5 °C 44.6 °F /  7.0 °C 29.8in /  1009.0hPa Calm   6.3mph /  10.1km/h 98% 0.01in /  0.3mm
20:08 43.5 °F /  6.4 °C 42.8 °F /  6.0 °C 29.8in /  1009.0hPa West 1.3mph /  2.1km/h 6.3mph /  10.1km/h 98% 0in /  0.0mm
20:13 43.3 °F /  6.3 °C 42.8 °F /  6.0 °C 29.8in /  1009.0hPa Calm   5.8mph /  9.3km/h 98% 0in /  0.0mm
20:18 43.3 °F /  6.3 °C 42.8 °F /  6.0 °C 29.8in /  1009.0hPa West 5.4mph /  8.7km/h 6.3mph /  10.1km/h 98% 0in /  0.0mm
20:23 43 °F /  6.1 °C 42.8 °F /  6.0 °C 29.8in /  1009.0hPa Calm   6.3mph /  10.1km/h 98% 0in /  0.0mm
20:28 43 °F /  6.1 °C 42.8 °F /  6.0 °C 29.8in /  1009.0hPa Calm   5.8mph /  9.3km/h 98% 0in /  0.0mm
20:38 42.4 °F /  5.8 °C 42.8 °F /  6.0 °C 29.8in /  1009.0hPa Calm   4.3mph /  6.9km/h 98% 0in /  0.0mm
20:43 42.3 °F /  5.7 °C 42.8 °F /  6.0 °C 29.8in /  1009.0hPa WSW 3.8mph /  6.1km/h 4.9mph /  7.9km/h 98% 0in /  0.0mm
20:48 41.9 °F /  5.5 °C 42.8 °F /  6.0 °C 29.8in /  1009.0hPa SW 3.4mph /  5.5km/h 5.4mph /  8.7km/h 98% 0in /  0.0mm
20:58 41.5 °F /  5.3 °C 42.8 °F /  6.0 °C 29.8in /  1009.0hPa Calm   5.4mph /  8.7km/h 98% 0in /  0.0mm
21:03 41.5 °F /  5.3 °C 42.8 °F /  6.0 °C 29.8in /  1009.0hPa WSW 3.1mph /  5.0km/h 5.4mph /  8.7km/h 98% 0in /  0.0mm
21:18 41.7 °F /  5.4 °C 42.8 °F /  6.0 °C 29.8in /  1010.0hPa WNW 3.8mph /  6.1km/h 6.9mph /  11.1km/h 98% 0in /  0.0mm
21:28 41.9 °F /  5.5 °C 42.8 °F /  6.0 °C 29.8in /  1010.0hPa West 3.1mph /  5.0km/h 7.2mph /  11.6km/h 98% 0in /  0.0mm
21:33 41.9 °F /  5.5 °C 42.8 °F /  6.0 °C 29.8in /  1010.0hPa Calm   8.1mph /  13.0km/h 98% 0in /  0.0mm
21:38 42.1 °F /  5.6 °C 42.8 °F /  6.0 °C 29.8in /  1010.0hPa West 6mph /  9.7km/h 8.1mph /  13.0km/h 98% 0in /  0.0mm
21:43 42.1 °F /  5.6 °C 42.8 °F /  6.0 °C 29.8in /  1010.0hPa West 4.9mph /  7.9km/h 7.6mph /  12.2km/h 98% 0in /  0.0mm
21:48 42.1 °F /  5.6 °C 42.8 °F /  6.0 °C 29.8in /  1010.0hPa SW 2.9mph /  4.7km/h 6.5mph /  10.5km/h 98% 0in /  0.0mm
21:53 42.1 °F /  5.6 °C 42.8 °F /  6.0 °C 29.8in /  1010.0hPa West 3.8mph /  6.1km/h 7.4mph /  11.9km/h 98% 0in /  0.0mm
21:58 42.1 °F /  5.6 °C 42.8 °F /  6.0 °C 29.8in /  1010.0hPa West 0.9mph /  1.4km/h 8.5mph /  13.7km/h 98% 0in /  0.0mm
22:08 42.1 °F /  5.6 °C 42.8 °F /  6.0 °C 29.8in /  1010.0hPa West 2.9mph /  4.7km/h 7.4mph /  11.9km/h 98% 0in /  0.0mm
22:14 42.1 °F /  5.6 °C 42.8 °F /  6.0 °C 29.8in /  1010.0hPa WSW 3.1mph /  5.0km/h 7.4mph /  11.9km/h 98% 0in /  0.0mm
22:22 41.7 °F /  5.4 °C 42.8 °F /  6.0 °C 29.8in /  1010.0hPa WSW 4.7mph /  7.6km/h 7.2mph /  11.6km/h 98% 0in /  0.0mm
22:27 41.5 °F /  5.3 °C 42.8 °F /  6.0 °C 29.8in /  1010.0hPa WSW 5.6mph /  9.0km/h 6.9mph /  11.1km/h 98% 0in /  0.0mm
22:32 41.2 °F /  5.1 °C 41 °F /  5.0 °C 29.8in /  1010.0hPa West 7.2mph /  11.6km/h 7.2mph /  11.6km/h 98% 0in /  0.0mm
22:37 41 °F /  5.0 °C 41 °F /  5.0 °C 29.8in /  1010.0hPa West 2.5mph /  4.0km/h 7.2mph /  11.6km/h 98% 0in /  0.0mm
22:42 40.8 °F /  4.9 °C 41 °F /  5.0 °C 29.8in /  1010.0hPa West 4mph /  6.4km/h 7.2mph /  11.6km/h 98% 0in /  0.0mm
22:47 40.5 °F /  4.7 °C 41 °F /  5.0 °C 29.8in /  1010.0hPa West 3.4mph /  5.5km/h 5.6mph /  9.0km/h 98% 0in /  0.0mm
22:52 40.5 °F /  4.7 °C 41 °F /  5.0 °C 29.8in /  1010.0hPa West 3.1mph /  5.0km/h 4.9mph /  7.9km/h 98% 0in /  0.0mm
22:57 40.3 °F /  4.6 °C 41 °F /  5.0 °C 29.8in /  1010.0hPa WSW 5.6mph /  9.0km/h 6.9mph /  11.1km/h 98% 0in /  0.0mm
23:02 40.1 °F /  4.5 °C 41 °F /  5.0 °C 29.8in /  1010.0hPa West 3.8mph /  6.1km/h 6.9mph /  11.1km/h 98% 0in /  0.0mm
23:12 39.9 °F /  4.4 °C 39.2 °F /  4.0 °C 29.8in /  1010.0hPa WSW 3.6mph /  5.8km/h 8.5mph /  13.7km/h 98% 0in /  0.0mm
23:17 39.9 °F /  4.4 °C 39.2 °F /  4.0 °C 29.8in /  1010.0hPa West 5.4mph /  8.7km/h 7.6mph /  12.2km/h 98% 0in /  0.0mm
23:22 39.9 °F /  4.4 °C 39.2 °F /  4.0 °C 29.8in /  1010.0hPa West 4mph /  6.4km/h 8.5mph /  13.7km/h 98% 0in /  0.0mm
23:32 40.1 °F /  4.5 °C 41 °F /  5.0 °C 29.9in /  1011.1hPa West 2.7mph /  4.3km/h 8.7mph /  14.0km/h 98% 0in /  0.0mm
23:37 40.3 °F /  4.6 °C 41 °F /  5.0 °C 29.9in /  1011.1hPa SSW 5.8mph /  9.3km/h 6.3mph /  10.1km/h 98% 0in /  0.0mm
23:42 40.1 °F /  4.5 °C 41 °F /  5.0 °C 29.9in /  1011.1hPa West 4.3mph /  6.9km/h 5.8mph /  9.3km/h 98% 0in /  0.0mm
23:52 40.1 °F /  4.5 °C 41 °F /  5.0 °C 29.9in /  1011.1hPa WNW 6.5mph /  10.5km/h 6.5mph /  10.5km/h 98% 0in /  0.0mm
23:57 39.9 °F /  4.4 °C 39.2 °F /  4.0 °C 29.9in /  1011.1hPa Calm   6.5mph /  10.5km/h 98% 0in /  0.0mm
Données Historique de Météo Turbie

Mise a jour : 20/07/2018 22:15:23
Généré par Cumulus 1.9.4 (1099)